Showers in the vicinity Current Weather (METAR) For Amsterdam Schiphol Airport

All times on the weather descriptions are local

Observed at 16:25 - (18 mins ago)

 Showers in the vicinity

8°C

Showers in the vicinity
Clouds: Few Clouds at 2,500ft
Wind: 290° at 23 knots, varying from 260° to 320
Visibility: Greater than 10km
QNH: 1019
Dew Point: 3°C
Runways with a headwind: Runway 24, Runway 27, Runways 36L/C/R

Sunrise Today: 08:45
Sunset Today: 16:31

Forecast Weather (TAF) For Amsterdam Schiphol Airport

Issued at 01:00 - (10 days 8 hrs ago)


Runways with a headwind: Unable to determine, wind is clam

Forecast valid until 01:00 on Wednesday

METAR/TAF RAW METAR / TAF

EHAM 201525Z 29023KT 260V320 9999 VCSH FEW025CB 08/03 Q1019 NOSIG

Weather Widget

Put weather from any of our airports on your website with our weather widget.

Find Another Search

Airport Search


Please Wait Please Wait - Loading
Close
Close

Login

Username:

Password:

Remember Me:

Remember me on this computer

Forgotten your password? Get a reset password sent to your registered e-mail address

Close

User Private Message

Subject:

Message: